createdAt,value
2022-09-22T00:00:16.211Z,2.38
2022-09-22T00:05:10.367Z,0.88
2022-09-22T00:10:05.399Z,1.17
2022-09-22T00:14:59.701Z,2.63
2022-09-22T00:19:57.167Z,2.17
2022-09-22T00:24:51.511Z,2.28
2022-09-22T00:29:50.156Z,0.90
2022-09-22T00:34:44.081Z,1.10
2022-09-22T00:39:37.940Z,1.10
2022-09-22T00:44:37.840Z,2.53
2022-09-22T00:49:59.251Z,1.73
2022-09-22T00:54:55.285Z,1.20
2022-09-22T00:59:49.615Z,1.45
2022-09-22T01:04:44.464Z,1.17
2022-09-22T01:09:38.500Z,2.05
2022-09-22T01:14:49.498Z,2.80
2022-09-22T01:19:45.647Z,1.60
2022-09-22T01:24:45.303Z,1.58
2022-09-22T01:30:16.313Z,1.80
2022-09-22T01:35:33.846Z,1.80
2022-09-22T01:40:45.189Z,2.40
2022-09-22T01:45:41.873Z,1.58
2022-09-22T01:50:42.580Z,0.82
2022-09-22T01:55:42.058Z,1.05
2022-09-22T02:00:37.619Z,1.23
2022-09-22T02:05:38.419Z,0.93
2022-09-22T02:10:45.176Z,1.17
2022-09-22T02:15:56.674Z,0.88
2022-09-22T02:20:51.382Z,1.05
2022-09-22T02:25:46.580Z,1.40
2022-09-22T02:30:40.790Z,1.73
2022-09-22T02:35:36.515Z,1.00
2022-09-22T02:40:49.666Z,1.88
2022-09-22T02:45:52.470Z,1.50
2022-09-22T02:50:46.194Z,0.77
2022-09-22T02:55:40.591Z,1.88
2022-09-22T03:00:35.250Z,2.00
2022-09-22T03:05:28.951Z,1.20
2022-09-22T03:10:22.675Z,0.95
2022-09-22T03:15:16.912Z,2.03
2022-09-22T03:20:12.249Z,0.90
2022-09-22T03:25:12.533Z,1.17
2022-09-22T03:30:08.115Z,1.42
2022-09-22T03:35:01.999Z,1.65
2022-09-22T03:39:56.052Z,1.40
2022-09-22T03:44:51.171Z,1.27
2022-09-22T03:49:45.222Z,0.73
2022-09-22T03:54:39.408Z,1.80
2022-09-22T03:59:32.759Z,1.13
2022-09-22T04:04:26.838Z,1.27
2022-09-22T04:09:21.087Z,0.85
2022-09-22T04:14:15.483Z,1.20
2022-09-22T04:19:10.896Z,3.22
2022-09-22T04:24:08.436Z,1.15
2022-09-22T04:29:02.476Z,1.15
2022-09-22T04:33:55.952Z,1.17
2022-09-22T04:38:50.384Z,1.05
2022-09-22T04:43:43.794Z,2.13
2022-09-22T04:48:37.706Z,1.48
2022-09-22T04:53:32.239Z,2.70
2022-09-22T04:58:26.859Z,2.03
2022-09-22T05:03:22.323Z,1.88
2022-09-22T05:08:16.825Z,2.45
2022-09-22T05:13:10.259Z,8.77
2022-09-22T05:18:04.246Z,9.10
2022-09-22T05:22:58.712Z,9.52
2022-09-22T05:27:54.864Z,7.68
2022-09-22T05:32:49.775Z,3.50
2022-09-22T05:37:47.733Z,10.02
2022-09-22T05:42:48.075Z,5.05
2022-09-22T05:47:41.941Z,7.35
2022-09-22T05:52:36.910Z,12.55
2022-09-22T05:57:32.626Z,7.18
2022-09-22T06:02:30.160Z,4.60
2022-09-22T06:07:24.695Z,6.82
2022-09-22T06:12:22.913Z,5.75
2022-09-22T06:17:17.463Z,4.38
2022-09-22T06:22:15.695Z,6.45
2022-09-22T06:27:09.392Z,3.25
2022-09-22T06:32:03.947Z,2.38
2022-09-22T06:36:58.286Z,1.92
2022-09-22T06:41:52.486Z,8.02
2022-09-22T06:46:48.115Z,4.93
2022-09-22T06:51:42.224Z,6.63
2022-09-22T06:56:38.443Z,3.42
2022-09-22T07:01:32.125Z,4.13
2022-09-22T07:06:27.123Z,2.55
2022-09-22T07:11:24.102Z,5.55
2022-09-22T07:16:19.337Z,2.83
2022-09-22T07:21:16.363Z,3.83
2022-09-22T07:26:14.829Z,6.15
2022-09-22T07:31:10.671Z,2.80
2022-09-22T07:36:11.472Z,3.03
2022-09-22T07:41:07.699Z,3.92
2022-09-22T07:46:02.457Z,4.32
2022-09-22T07:51:00.980Z,3.00
2022-09-22T07:55:55.382Z,4.82
2022-09-22T08:00:49.521Z,3.58
2022-09-22T08:05:42.695Z,5.88
2022-09-22T08:10:37.012Z,6.05
2022-09-22T08:15:30.991Z,4.10
2022-09-22T08:20:26.840Z,3.70
2022-09-22T08:25:21.367Z,3.30
2022-09-22T08:30:16.084Z,3.65
2022-09-22T08:35:10.127Z,3.42
2022-09-22T08:40:05.198Z,2.33
2022-09-22T08:45:07.656Z,1.52
2022-09-22T08:50:19.610Z,2.40
2022-09-22T08:55:26.611Z,2.40
2022-09-22T09:00:20.750Z,3.30
2022-09-22T09:06:00.934Z,3.13
2022-09-22T09:11:12.659Z,3.20
2022-09-22T09:16:24.507Z,1.95
2022-09-22T09:21:18.619Z,2.38
2022-09-22T09:26:12.884Z,3.45
2022-09-22T09:31:26.834Z,3.38
2022-09-22T09:36:23.669Z,2.97
2022-09-22T09:41:32.118Z,4.43
2022-09-22T09:46:51.410Z,2.15
2022-09-22T09:51:50.960Z,3.00
2022-09-22T09:57:05.234Z,2.05
2022-09-22T10:01:59.076Z,3.75
2022-09-22T10:06:53.130Z,2.88
2022-09-22T10:11:58.342Z,2.55
2022-09-22T10:16:52.762Z,2.10
2022-09-22T10:21:46.896Z,2.13
2022-09-22T10:26:56.687Z,2.60
2022-09-22T10:32:17.459Z,2.75
2022-09-22T10:37:11.950Z,1.50
2022-09-22T10:42:13.393Z,3.05
2022-09-22T10:47:31.891Z,2.85
2022-09-22T10:52:39.699Z,1.63
2022-09-22T10:57:47.463Z,1.92
2022-09-22T11:03:03.145Z,1.83
2022-09-22T11:08:23.703Z,3.20
2022-09-22T11:13:47.820Z,1.88
2022-09-22T11:18:40.643Z,0.95
2022-09-22T11:23:45.704Z,1.77
2022-09-22T11:29:08.140Z,4.18
2022-09-22T11:34:18.621Z,3.07
2022-09-22T11:39:36.370Z,3.22
2022-09-22T11:44:37.007Z,4.55
2022-09-22T11:50:09.224Z,4.03
2022-09-22T11:55:27.736Z,6.53
2022-09-22T12:00:22.298Z,3.17
2022-09-22T12:05:32.150Z,6.32
2022-09-22T12:10:37.332Z,6.82
2022-09-22T12:21:37.693Z,3.83
2022-09-22T12:26:31.936Z,19.92
2022-09-22T12:31:37.931Z,15.57
2022-09-22T12:36:41.124Z,8.60
2022-09-22T12:41:48.833Z,12.05
2022-09-22T12:46:43.843Z,9.65
2022-09-22T12:51:38.207Z,9.77
2022-09-22T12:56:53.787Z,7.80
2022-09-22T13:01:47.488Z,9.85
2022-09-22T13:06:40.143Z,9.85
2022-09-22T13:12:09.992Z,8.23
2022-09-22T13:17:42.068Z,10.07
2022-09-22T13:22:37.113Z,13.60
2022-09-22T13:27:29.809Z,4.47
2022-09-22T13:32:27.416Z,4.63
2022-09-22T13:37:23.595Z,7.18
2022-09-22T13:42:35.376Z,4.53
2022-09-22T13:47:29.715Z,4.07
2022-09-22T13:52:31.116Z,3.53
2022-09-22T13:57:30.576Z,5.30
2022-09-22T14:02:30.636Z,3.67
2022-09-22T14:07:28.484Z,4.28
2022-09-22T14:12:23.476Z,1.77
2022-09-22T14:17:22.386Z,3.25
2022-09-22T14:22:28.881Z,4.00
2022-09-22T14:27:43.377Z,3.30
2022-09-22T14:32:41.682Z,5.13
2022-09-22T14:37:42.013Z,2.10
2022-09-22T14:42:35.344Z,5.60
2022-09-22T14:47:30.486Z,1.42
2022-09-22T14:52:33.543Z,10.45
2022-09-22T14:57:27.602Z,4.78
2022-09-22T15:02:33.563Z,6.00
2022-09-22T15:07:29.231Z,3.08
2022-09-22T15:12:49.357Z,1.88
2022-09-22T15:18:03.259Z,6.63
2022-09-22T15:22:56.911Z,5.38
2022-09-22T15:27:53.459Z,6.95
2022-09-22T15:32:48.567Z,5.47
2022-09-22T15:37:42.750Z,4.50
2022-09-22T15:42:41.991Z,3.35
2022-09-22T15:48:09.244Z,2.90
2022-09-22T15:53:03.528Z,3.00
2022-09-22T15:58:09.023Z,3.45
2022-09-22T16:03:02.945Z,1.20
2022-09-22T16:07:57.939Z,2.33
2022-09-22T16:12:52.734Z,3.92
2022-09-22T16:17:47.234Z,4.07
2022-09-22T16:22:41.515Z,3.92
2022-09-22T16:27:37.115Z,6.40
2022-09-22T16:32:33.330Z,6.40
2022-09-22T16:37:27.581Z,4.13
2022-09-22T16:42:23.909Z,6.28
2022-09-22T16:47:23.477Z,12.63
2022-09-22T16:52:19.163Z,11.90
2022-09-22T16:57:13.505Z,7.47
2022-09-22T17:02:07.449Z,6.72
2022-09-22T17:07:01.816Z,9.52
2022-09-22T17:11:58.621Z,5.35
2022-09-22T17:16:58.378Z,5.30
2022-09-22T17:21:55.500Z,11.38
2022-09-22T17:26:58.200Z,6.25
2022-09-22T17:31:57.159Z,7.25
2022-09-22T17:36:51.954Z,5.30
2022-09-22T17:41:48.443Z,3.60
2022-09-22T17:47:02.153Z,4.47
2022-09-22T17:52:13.900Z,4.50
2022-09-22T17:57:09.043Z,4.55
2022-09-22T18:02:04.093Z,6.07
2022-09-22T18:06:58.738Z,5.93
2022-09-22T18:11:52.142Z,6.88
2022-09-22T18:16:45.939Z,5.45
2022-09-22T18:21:40.244Z,10.23
2022-09-22T18:26:38.971Z,13.80
2022-09-22T18:31:32.838Z,6.35
2022-09-22T18:36:26.808Z,4.18
2022-09-22T18:41:20.827Z,6.90
2022-09-22T18:46:20.669Z,7.78
2022-09-22T18:51:15.253Z,4.90
2022-09-22T18:56:28.370Z,5.82
2022-09-22T19:01:24.428Z,7.28
2022-09-22T19:06:17.228Z,6.82
2022-09-22T19:11:14.899Z,6.47
2022-09-22T19:16:10.546Z,9.07
2022-09-22T19:21:05.510Z,5.93
2022-09-22T19:26:00.658Z,5.18
2022-09-22T19:30:53.404Z,5.75
2022-09-22T19:35:47.924Z,4.55
2022-09-22T19:40:41.842Z,7.72
2022-09-22T19:45:36.339Z,7.30
2022-09-22T19:50:30.102Z,4.03
2022-09-22T19:55:24.504Z,12.15
2022-09-22T20:00:18.930Z,11.90
2022-09-22T20:05:22.895Z,6.32
2022-09-22T20:10:17.890Z,5.35
2022-09-22T20:15:16.236Z,4.68
2022-09-22T20:20:10.371Z,5.47
2022-09-22T20:25:05.554Z,5.50
2022-09-22T20:29:59.637Z,5.03
2022-09-22T20:34:54.968Z,6.35
2022-09-22T20:39:49.366Z,6.85
2022-09-22T20:44:43.220Z,4.90
2022-09-22T20:49:38.323Z,4.82
2022-09-22T20:54:32.245Z,5.97
2022-09-22T20:59:25.076Z,4.72
2022-09-22T21:04:19.446Z,6.50
2022-09-22T21:09:32.184Z,5.03
2022-09-22T21:14:26.459Z,5.28
2022-09-22T21:19:21.990Z,5.38
2022-09-22T21:24:21.237Z,3.85
2022-09-22T21:29:15.483Z,4.07
2022-09-22T21:34:10.035Z,4.30
2022-09-22T21:39:04.320Z,4.10
2022-09-22T21:43:58.263Z,3.15
2022-09-22T21:48:51.621Z,3.88
2022-09-22T21:53:46.103Z,3.70
2022-09-22T21:58:42.107Z,3.13
2022-09-22T22:03:37.417Z,3.65
2022-09-22T22:08:33.671Z,4.72
2022-09-22T22:13:30.422Z,7.70
2022-09-22T22:18:24.597Z,2.63
2022-09-22T22:23:18.108Z,4.22
2022-09-22T22:28:12.437Z,4.45
2022-09-22T22:33:08.702Z,6.72
2022-09-22T22:38:02.861Z,4.20
2022-09-22T22:42:56.706Z,2.50
2022-09-22T22:47:50.159Z,2.47
2022-09-22T22:52:46.964Z,3.22
2022-09-22T22:57:40.910Z,3.15
2022-09-22T23:02:35.131Z,3.53
2022-09-22T23:07:28.932Z,4.50
2022-09-22T23:12:23.347Z,3.10
2022-09-22T23:17:17.499Z,3.55
2022-09-22T23:22:10.604Z,5.63
2022-09-22T23:27:05.369Z,5.30
2022-09-22T23:31:59.796Z,3.13
2022-09-22T23:36:53.717Z,2.70
2022-09-22T23:41:51.139Z,3.10
2022-09-22T23:46:45.292Z,3.42
2022-09-22T23:51:39.093Z,4.15
2022-09-22T23:56:32.795Z,3.15
